This is the latest recevied weather packets stored in our database for station/object ka8upw-1. If no packets are shown the sender has not sent any weather packets the latest 10 day(s).
| Time | Temp. | Humidity | Pressure | Rain* | Wind** | Luminosity | Snow |
|---|---|---|---|---|---|---|---|
| 1777565343 | 8.33° C | 80% | 1013.3 hPa | 0 mm | - | - | - |
| 1777562283 | 7.78° C | 84% | 1013 hPa | 0 mm | - | - | - |
| 1777560843 | 6.67° C | 86% | 1012.8 hPa | 0 mm | - | - | - |
| 1777559764 | 6.67° C | 87% | 1012.6 hPa | 0 mm | - | - | - |
| 1777553105 | 5.56° C | 92% | 1011.5 hPa | 0 mm | - | - | - |
| 1777550043 | 5° C | 93% | 1011.3 hPa | 0 mm | - | - | - |
| 1777549503 | 5° C | 94% | 1011.2 hPa | 0 mm | - | - | - |
| 1777543878 | 5° C | 94% | 1010.5 hPa | 0 mm | - | - | - |
| 1777543203 | 5° C | 94% | 1010.5 hPa | 0 mm | - | - | - |
| 1777540683 | 5° C | 94% | 1010.4 hPa | 0 mm | - | - | - |
| 1777538163 | 5° C | 94% | 1010.1 hPa | 0 mm | - | - | - |
| 1777533484 | 6.11° C | 94% | 1009.4 hPa | 0 mm | - | - | - |
| 1777525743 | 7.78° C | 95% | 1009.3 hPa | 0 mm | - | - | - |
| 1777525204 | 7.22° C | 95% | 1009.4 hPa | 0 mm | - | - | - |
| 1777523764 | 7.22° C | 95% | 1009.3 hPa | 0 mm | - | - | - |
| 1777519624 | 8.33° C | 95% | 1009.6 hPa | 0.76 mm | - | - | - |
| 1777513101 | 7.78° C | 94% | 1009.3 hPa | 0 mm | - | - | - |
| 1777509903 | 8.89° C | 94% | 1009.1 hPa | 0.76 mm | - | - | - |
| 1777508823 | 8.89° C | 93% | 1009.1 hPa | 0.76 mm | - | - | - |
| 1777506304 | 8.89° C | 92% | 1008.9 hPa | 0 mm | - | - | - |
| 1777505223 | 9.44° C | 93% | 1008.5 hPa | 0 mm | - | - | - |
| 1777504144 | 9.44° C | 92% | 1008.6 hPa | 0 mm | - | - | - |
| 1777503604 | 9.44° C | 92% | 1008.6 hPa | 0 mm | - | - | - |
| 1777500543 | 9.44° C | 93% | 1008.1 hPa | 0 mm | - | - | - |
| 1777498563 | 9.44° C | 92% | 1007.9 hPa | 0 mm | - | - | - |
* Rain latest hour (hover to see other rain measurements)
** Current wind speed in m/s (hover to see current wind gust speed)